Time;durP1;ratioP1;P1;durP2;ratioP2;P2;SDS_P1;SDS_P2;PMS_P1;PMS_P2;Temp;Humidity;BMP_temperature;BMP_pressure;BME280_temperature;BME280_humidity;BME280_pressure;Samples;Min_cycle;Max_cycle;Signal;HPM_P1;HPM_P2
2023/05/05 00:01:13;;;;;;;7.65;4.70;;;19.90;59.20;;;;;;5016172;28;20228;-60
2023/05/05 00:03:44;;;;;;;8.18;4.40;;;20.00;59.30;;;;;;5010929;28;20197;-61
2023/05/05 00:06:16;;;;;;;6.47;3.95;;;20.00;59.30;;;;;;5020605;28;20635;-61
2023/05/05 00:08:47;;;;;;;5.63;3.90;;;20.00;59.30;;;;;;5019920;28;20215;-61
2023/05/05 00:11:18;;;;;;;6.07;4.28;;;20.00;59.30;;;;;;5011274;28;20216;-60
2023/05/05 00:13:48;;;;;;;6.90;4.53;;;20.00;59.30;;;;;;5011236;28;20204;-60
2023/05/05 00:16:19;;;;;;;5.13;3.47;;;20.10;59.40;;;;;;5025456;28;20200;-60
2023/05/05 00:18:50;;;;;;;5.50;3.80;;;20.10;59.40;;;;;;5009541;28;20188;-60
2023/05/05 00:21:22;;;;;;;5.18;4.05;;;20.10;59.40;;;;;;5011256;28;20290;-60
2023/05/05 00:23:53;;;;;;;5.78;4.03;;;20.10;59.30;;;;;;5018666;28;20204;-60
2023/05/05 00:26:24;;;;;;;6.53;3.85;;;20.10;59.30;;;;;;5010442;28;20201;-60
2023/05/05 00:28:54;;;;;;;4.80;3.78;;;20.10;59.30;;;;;;5010947;28;20193;-60
2023/05/05 00:31:25;;;;;;;6.53;4.05;;;20.10;59.30;;;;;;5010747;28;20219;-60
2023/05/05 00:33:56;;;;;;;5.38;3.72;;;20.10;59.30;;;;;;5011040;28;20204;-61
2023/05/05 00:36:29;;;;;;;5.88;3.97;;;20.10;59.40;;;;;;5010656;28;20201;-60
2023/05/05 00:39:00;;;;;;;6.03;3.60;;;20.20;59.40;;;;;;5016221;28;20200;-61
2023/05/05 00:41:30;;;;;;;5.85;3.83;;;20.20;59.40;;;;;;5010059;28;20233;-61
2023/05/05 00:44:01;;;;;;;5.03;3.80;;;20.20;59.40;;;;;;5010094;28;20200;-60
2023/05/05 00:46:33;;;;;;;5.40;3.30;;;20.30;59.50;;;;;;5011096;28;20559;-61
2023/05/05 00:49:04;;;;;;;4.82;3.33;;;20.30;59.40;;;;;;5010314;28;20634;-61
2023/05/05 00:51:36;;;;;;;4.88;3.92;;;20.30;59.40;;;;;;5010616;28;20196;-61
2023/05/05 00:54:08;;;;;;;6.90;4.15;;;20.30;59.20;;;;;;5020554;28;20658;-61
2023/05/05 00:56:39;;;;;;;4.90;3.50;;;20.30;59.20;;;;;;5020467;28;20196;-60
2023/05/05 00:59:09;;;;;;;5.22;3.25;;;20.30;59.10;;;;;;5029225;28;20618;-61
2023/05/05 01:01:40;;;;;;;6.20;4.07;;;20.30;59.10;;;;;;5031507;28;20220;-61
2023/05/05 01:04:11;;;;;;;5.93;3.60;;;20.40;59.10;;;;;;5031475;28;20286;-61
2023/05/05 01:06:55;;;;;;;5.47;3.45;;;20.40;59.00;;;;;;5014539;28;20675;-60
2023/05/05 01:09:37;;;;;;;4.70;3.53;;;20.40;59.00;;;;;;5030671;28;20211;-61
2023/05/05 01:12:16;;;;;;;4.18;3.25;;;20.40;59.20;;;;;;5014159;28;20196;-61
2023/05/05 01:14:54;;;;;;;5.07;3.60;;;20.40;59.20;;;;;;5014315;28;20189;-59
2023/05/05 01:17:28;;;;;;;4.15;3.00;;;20.50;59.20;;;;;;5014305;28;20197;-60
2023/05/05 01:20:07;;;;;;;4.70;3.63;;;20.50;59.20;;;;;;5014010;28;20247;-60
2023/05/05 01:22:43;;;;;;;4.63;3.53;;;20.50;59.20;;;;;;5014073;28;20224;-60
2023/05/05 01:26:06;;;;;;;3.63;3.00;;;20.50;59.20;;;;;;5019835;28;20208;-60
2023/05/05 01:28:51;;;;;;;4.43;3.30;;;20.50;59.20;;;;;;4927372;29;20203;-60
2023/05/05 01:31:50;;;;;;;4.72;3.30;;;20.50;59.10;;;;;;4934676;29;20310;-60
2023/05/05 01:34:26;;;;;;;3.72;2.95;;;20.50;59.10;;;;;;4984886;28;20204;-60
2023/05/05 01:37:06;;;;;;;4.25;3.45;;;20.60;59.10;;;;;;5014364;28;20196;-60
2023/05/05 01:39:39;;;;;;;4.32;3.20;;;20.60;59.00;;;;;;5013133;28;20743;-60
2023/05/05 01:42:14;;;;;;;3.95;3.13;;;20.60;59.00;;;;;;5031025;28;20235;-60
2023/05/05 01:44:46;;;;;;;5.03;3.08;;;20.60;58.90;;;;;;5016153;28;20653;-60
2023/05/05 01:47:20;;;;;;;3.78;2.85;;;20.60;58.80;;;;;;5024323;28;20208;-60
2023/05/05 01:49:52;;;;;;;3.42;2.88;;;20.70;58.90;;;;;;5012545;28;20291;-59
2023/05/05 01:52:23;;;;;;;3.03;2.70;;;20.70;58.90;;;;;;5013385;28;20208;-60
2023/05/05 01:54:56;;;;;;;3.78;3.15;;;20.70;58.80;;;;;;5022340;28;20563;-61
2023/05/05 01:57:30;;;;;;;3.28;2.83;;;20.70;58.80;;;;;;5013058;28;20197;-61
2023/05/05 02:00:02;;;;;;;4.78;3.40;;;20.70;58.90;;;;;;5013595;28;20216;-61
2023/05/05 02:02:36;;;;;;;4.22;3.05;;;20.80;58.90;;;;;;5013237;28;20769;-60
2023/05/05 02:05:08;;;;;;;3.75;3.08;;;20.70;59.00;;;;;;5012878;28;20204;-60
2023/05/05 02:07:39;;;;;;;3.15;2.70;;;20.80;58.90;;;;;;5024197;28;20245;-60
2023/05/05 02:10:11;;;;;;;3.78;2.83;;;20.80;59.00;;;;;;5023741;28;20216;-60
2023/05/05 02:12:44;;;;;;;3.78;3.20;;;20.80;58.90;;;;;;5013960;28;20212;-60
2023/05/05 02:15:15;;;;;;;3.35;2.97;;;20.80;58.90;;;;;;5023709;28;20204;-61
2023/05/05 02:17:50;;;;;;;2.83;2.55;;;20.80;58.90;;;;;;5011805;28;20216;-61
2023/05/05 02:20:21;;;;;;;3.47;2.97;;;20.80;58.80;;;;;;5012942;28;20216;-61
2023/05/05 02:22:52;;;;;;;5.68;2.95;;;20.80;58.70;;;;;;5014300;28;20286;-61
2023/05/05 02:25:24;;;;;;;3.42;2.90;;;20.90;58.80;;;;;;5022641;28;20203;-60
2023/05/05 02:28:01;;;;;;;3.80;3.15;;;20.90;58.80;;;;;;5012826;28;20193;-61
2023/05/05 02:30:36;;;;;;;3.45;2.85;;;20.90;58.70;;;;;;5012292;28;20213;-61
2023/05/05 02:33:13;;;;;;;3.10;2.50;;;20.90;59.20;;;;;;5014179;28;20660;-60
2023/05/05 02:35:45;;;;;;;3.20;2.85;;;20.90;58.80;;;;;;5020217;28;20270;-61
2023/05/05 02:38:18;;;;;;;3.30;2.88;;;20.90;58.70;;;;;;5012313;28;20201;-61
2023/05/05 02:40:52;;;;;;;3.53;2.80;;;20.90;58.60;;;;;;5012393;28;20307;-61
2023/05/05 02:43:26;;;;;;;2.92;2.50;;;21.00;58.70;;;;;;5012433;28;20224;-61
2023/05/05 02:45:56;;;;;;;2.85;2.50;;;20.90;58.70;;;;;;5011619;28;20193;-60
2023/05/05 02:48:29;;;;;;;3.42;2.75;;;21.00;58.70;;;;;;5012047;28;20197;-61
2023/05/05 02:51:00;;;;;;;3.97;2.97;;;21.00;58.70;;;;;;5011992;28;20209;-60
2023/05/05 02:53:31;;;;;;;2.97;2.67;;;21.00;58.70;;;;;;5013110;28;20295;-61
2023/05/05 02:56:09;;;;;;;2.90;2.50;;;21.00;58.70;;;;;;5012180;28;20201;-60
2023/05/05 02:58:47;;;;;;;3.63;2.80;;;21.00;58.70;;;;;;5010044;28;20189;-60
2023/05/05 03:01:31;;;;;;;2.95;2.65;;;21.00;58.60;;;;;;5012559;28;20212;-61
2023/05/05 03:04:09;;;;;;;3.25;2.60;;;21.00;58.60;;;;;;5011759;28;20204;-60
2023/05/05 03:06:44;;;;;;;3.50;3.10;;;21.00;58.60;;;;;;5011589;28;20205;-61
2023/05/05 03:09:22;;;;;;;3.22;2.90;;;21.00;58.60;;;;;;5011313;28;20196;-61
2023/05/05 03:11:58;;;;;;;3.28;2.97;;;21.00;58.50;;;;;;5010888;28;20543;-61
2023/05/05 03:14:32;;;;;;;3.28;2.97;;;21.00;58.60;;;;;;5013845;28;20208;-60
2023/05/05 03:17:04;;;;;;;3.13;2.80;;;21.00;58.60;;;;;;5013078;28;20195;-61
2023/05/05 03:19:38;;;;;;;3.42;2.75;;;21.00;58.60;;;;;;5029922;28;20224;-61
2023/05/05 03:22:09;;;;;;;3.70;3.00;;;21.00;58.50;;;;;;4991454;28;20252;-61
2023/05/05 03:24:40;;;;;;;3.05;2.70;;;21.00;58.50;;;;;;5022823;28;20204;-61
2023/05/05 03:27:10;;;;;;;3.28;2.97;;;21.00;58.50;;;;;;5010656;28;20661;-61
2023/05/05 03:29:41;;;;;;;3.15;2.85;;;21.00;58.50;;;;;;5011508;28;20217;-61
2023/05/05 03:32:11;;;;;;;2.92;2.70;;;21.00;58.60;;;;;;5011813;28;20197;-61
2023/05/05 03:34:44;;;;;;;3.85;2.88;;;21.10;58.60;;;;;;5013241;28;20212;-60
2023/05/05 03:37:15;;;;;;;3.90;2.70;;;21.00;58.50;;;;;;5008719;28;20197;-61
2023/05/05 03:39:45;;;;;;;3.10;2.80;;;21.00;58.60;;;;;;5026529;28;20223;-61
2023/05/05 03:42:16;;;;;;;3.22;2.90;;;21.00;58.60;;;;;;5030206;28;20239;-62
2023/05/05 03:44:46;;;;;;;4.32;2.95;;;21.00;58.60;;;;;;5030826;28;20196;-62
2023/05/05 03:47:17;;;;;;;4.53;3.00;;;21.10;58.50;;;;;;5017107;28;20271;-61
2023/05/05 03:49:50;;;;;;;3.42;2.90;;;21.10;58.50;;;;;;5030033;28;20674;-60
2023/05/05 03:52:20;;;;;;;5.10;3.22;;;21.00;58.40;;;;;;4999949;28;20609;-60
2023/05/05 03:54:51;;;;;;;5.13;3.20;;;21.10;58.40;;;;;;5027730;28;20668;-60
2023/05/05 03:57:21;;;;;;;3.90;3.28;;;21.00;58.40;;;;;;5010551;28;20205;-60
2023/05/05 03:59:52;;;;;;;4.85;3.17;;;21.00;58.40;;;;;;5011157;28;20212;-60
2023/05/05 04:02:23;;;;;;;4.63;3.30;;;21.00;58.40;;;;;;4996037;28;20275;-60
2023/05/05 04:04:55;;;;;;;3.25;2.90;;;21.00;58.40;;;;;;5011138;28;20204;-61
2023/05/05 04:07:29;;;;;;;3.28;2.60;;;21.00;58.40;;;;;;4991429;28;20208;-61
2023/05/05 04:10:00;;;;;;;3.53;3.15;;;21.00;58.40;;;;;;5011550;28;20247;-61
2023/05/05 04:12:30;;;;;;;3.17;2.88;;;21.10;58.40;;;;;;5010311;28;20687;-61
2023/05/05 04:15:01;;;;;;;3.35;3.08;;;21.00;58.40;;;;;;5010260;22;20225;-50
2023/05/05 04:17:34;;;;;;;4.22;3.10;;;21.00;58.40;;;;;;4990563;28;20222;-49
2023/05/05 04:20:08;;;;;;;3.45;2.78;;;21.00;58.40;;;;;;4990742;28;20213;-51
2023/05/05 04:22:38;;;;;;;4.03;3.35;;;21.00;58.50;;;;;;4990059;28;20221;-50
2023/05/05 04:25:10;;;;;;;3.10;2.80;;;21.00;58.40;;;;;;4972782;28;20205;-50
2023/05/05 04:27:40;;;;;;;3.88;3.30;;;21.00;58.40;;;;;;5002977;28;20200;-52
2023/05/05 04:30:12;;;;;;;5.47;3.65;;;21.00;58.50;;;;;;4997090;28;20625;-51
2023/05/05 04:32:42;;;;;;;4.38;3.58;;;21.00;58.40;;;;;;5008028;28;20676;-48
2023/05/05 04:35:15;;;;;;;4.40;3.30;;;21.00;58.40;;;;;;4990872;28;20202;-52
2023/05/05 04:37:46;;;;;;;4.75;3.72;;;21.00;58.40;;;;;;4991287;28;20197;-52
2023/05/05 04:40:16;;;;;;;3.97;3.40;;;21.00;58.40;;;;;;4991334;28;20221;-52
2023/05/05 04:42:47;;;;;;;4.38;3.47;;;21.00;58.40;;;;;;4991433;28;20225;-52
2023/05/05 04:45:18;;;;;;;3.72;3.33;;;21.00;58.40;;;;;;4990925;28;20257;-52
2023/05/05 04:47:48;;;;;;;3.80;3.10;;;21.00;58.30;;;;;;4991074;28;20732;-51
2023/05/05 04:50:21;;;;;;;4.50;3.35;;;21.00;58.30;;;;;;4990719;28;20245;-51
2023/05/05 04:52:52;;;;;;;4.95;3.47;;;21.00;58.30;;;;;;5003947;28;20201;-51
2023/05/05 04:55:22;;;;;;;4.13;3.72;;;21.00;58.30;;;;;;4993739;28;20198;-49
2023/05/05 04:57:53;;;;;;;3.08;2.60;;;21.00;58.30;;;;;;4991586;28;20569;-51
2023/05/05 05:00:24;;;;;;;3.80;3.40;;;21.00;58.30;;;;;;4978103;28;20210;-53
2023/05/05 05:02:54;;;;;;;3.25;2.95;;;21.00;58.30;;;;;;4972718;28;20309;-49
2023/05/05 05:05:27;;;;;;;3.88;3.17;;;21.00;58.20;;;;;;5011225;28;20197;-47
2023/05/05 05:07:58;;;;;;;3.80;3.40;;;21.00;58.20;;;;;;5011101;28;20656;-50
2023/05/05 05:10:28;;;;;;;3.70;3.40;;;21.00;58.20;;;;;;5010803;28;20225;-50
2023/05/05 05:12:59;;;;;;;3.60;3.30;;;21.00;58.20;;;;;;4996208;28;20202;-47
2023/05/05 05:15:29;;;;;;;6.13;4.47;;;21.00;58.30;;;;;;4991608;28;20205;-48
2023/05/05 05:18:00;;;;;;;8.10;5.03;;;21.00;58.60;;;;;;4991191;28;20260;-47
2023/05/05 05:20:33;;;;;;;5.95;4.93;;;21.00;58.60;;;;;;4990773;28;20228;-49
2023/05/05 05:23:03;;;;;;;8.50;4.95;;;21.00;58.80;;;;;;5007227;28;20227;-47
2023/05/05 05:25:34;;;;;;;12.70;6.93;;;21.00;59.00;;;;;;4989363;28;20646;-46
2023/05/05 05:28:05;;;;;;;14.35;9.43;;;20.90;59.10;;;;;;4990583;28;20676;-49
2023/05/05 05:30:36;;;;;;;13.05;7.82;;;20.90;59.30;;;;;;4990527;28;20221;-47
2023/05/05 05:33:06;;;;;;;16.67;11.02;;;20.90;59.40;;;;;;4995155;28;20209;-47
2023/05/05 05:35:39;;;;;;;12.57;9.70;;;20.80;59.50;;;;;;4996303;28;20194;-48
2023/05/05 05:38:10;;;;;;;18.35;10.95;;;20.80;59.70;;;;;;4990378;28;20198;-47
2023/05/05 05:40:40;;;;;;;18.02;11.02;;;20.80;59.90;;;;;;4989617;28;20890;-50
2023/05/05 05:43:11;;;;;;;11.82;8.43;;;20.70;59.90;;;;;;5004853;28;20228;-52
2023/05/05 05:45:41;;;;;;;11.07;7.05;;;20.70;60.00;;;;;;4999280;28;20205;-47
2023/05/05 05:48:12;;;;;;;12.05;6.72;;;20.70;60.20;;;;;;4976499;28;20205;-49
2023/05/05 05:50:45;;;;;;;11.50;7.18;;;20.70;60.40;;;;;;4987862;28;20705;-46
2023/05/05 05:53:15;;;;;;;10.63;6.63;;;20.60;60.40;;;;;;4997565;28;20614;-46
2023/05/05 05:55:48;;;;;;;10.63;6.90;;;20.60;60.50;;;;;;4997990;28;20189;-49
2023/05/05 05:58:19;;;;;;;7.63;6.15;;;20.60;60.70;;;;;;4993564;28;20249;-48
2023/05/05 06:00:50;;;;;;;14.27;8.32;;;20.60;60.80;;;;;;4994069;28;20698;-48
2023/05/05 06:03:21;;;;;;;14.40;8.38;;;20.50;60.80;;;;;;4993340;28;20233;-49
2023/05/05 06:05:54;;;;;;;12.00;8.02;;;20.50;60.90;;;;;;4993633;28;20198;-46
2023/05/05 06:08:25;;;;;;;10.45;6.97;;;20.50;61.00;;;;;;4993421;28;20198;-50
2023/05/05 06:10:55;;;;;;;13.07;7.38;;;20.50;61.10;;;;;;4992241;28;20567;-47
2023/05/05 06:13:26;;;;;;;11.60;6.95;;;20.50;61.20;;;;;;5006755;28;20205;-47
2023/05/05 06:15:57;;;;;;;12.63;6.50;;;20.50;61.30;;;;;;4992486;28;20205;-47
2023/05/05 06:18:27;;;;;;;11.63;6.90;;;20.40;61.20;;;;;;4992937;28;20197;-48
2023/05/05 06:21:00;;;;;;;11.85;6.78;;;20.40;61.20;;;;;;4992650;28;20225;-48
2023/05/05 06:23:32;;;;;;;11.10;7.15;;;20.40;61.30;;;;;;5001127;28;20594;-46
2023/05/05 06:26:03;;;;;;;12.40;7.10;;;20.40;61.30;;;;;;4997471;28;20570;-47
2023/05/05 06:28:33;;;;;;;15.05;7.63;;;20.40;61.40;;;;;;4993858;28;20205;-48
2023/05/05 06:31:04;;;;;;;15.95;7.50;;;20.30;61.40;;;;;;4992591;28;20221;-52
2023/05/05 06:33:35;;;;;;;14.10;10.07;;;20.30;61.40;;;;;;4992944;28;20205;-52
2023/05/05 06:36:08;;;;;;;14.05;7.88;;;20.20;61.50;;;;;;4993204;28;20189;-49
2023/05/05 06:38:38;;;;;;;13.43;8.40;;;20.30;61.70;;;;;;4993226;28;20251;-47
2023/05/05 06:41:09;;;;;;;14.32;8.68;;;20.20;61.40;;;;;;4993105;28;20686;-49
2023/05/05 06:43:41;;;;;;;13.00;9.07;;;20.30;61.40;;;;;;4993083;28;20236;-47
2023/05/05 06:46:12;;;;;;;13.18;8.52;;;20.20;61.40;;;;;;4993504;28;20194;-50
2023/05/05 06:48:43;;;;;;;14.63;9.18;;;20.20;62.50;;;;;;4993070;28;20201;-46
2023/05/05 06:51:16;;;;;;;11.80;9.45;;;20.20;61.90;;;;;;4982613;28;20225;-46
2023/05/05 06:53:47;;;;;;;15.43;11.07;;;20.30;61.80;;;;;;4989063;28;20660;-46
2023/05/05 06:56:17;;;;;;;14.05;9.82;;;20.20;61.60;;;;;;4996979;28;20194;-50
2023/05/05 06:58:48;;;;;;;17.58;10.85;;;20.20;61.60;;;;;;4992921;28;20225;-50
2023/05/05 07:01:18;;;;;;;17.50;12.18;;;20.20;61.60;;;;;;4992309;28;20579;-53
2023/05/05 07:03:49;;;;;;;17.15;12.25;;;20.20;61.60;;;;;;4992134;28;20240;-50
2023/05/05 07:06:22;;;;;;;23.70;10.88;;;20.20;61.70;;;;;;4991547;28;20198;-52
2023/05/05 07:08:52;;;;;;;15.82;11.55;;;20.20;61.70;;;;;;4991894;28;20202;-53
2023/05/05 07:11:23;;;;;;;15.02;12.13;;;20.20;61.70;;;;;;4988374;28;20220;-53
2023/05/05 07:13:54;;;;;;;18.98;16.77;;;20.10;61.60;;;;;;5003295;23;20209;-56
2023/05/05 07:16:25;;;;;;;16.73;13.48;;;20.10;61.70;;;;;;5011233;28;20653;-56
2023/05/05 07:18:56;;;;;;;18.42;13.43;;;20.10;61.80;;;;;;5012525;28;20196;-56
2023/05/05 07:21:28;;;;;;;18.02;12.35;;;20.10;61.80;;;;;;5012271;28;20742;-55
2023/05/05 07:23:59;;;;;;;21.90;11.77;;;20.10;61.80;;;;;;5021714;28;20731;-55
2023/05/05 07:26:30;;;;;;;17.48;11.52;;;20.00;61.80;;;;;;5015669;28;20192;-59
2023/05/05 07:29:01;;;;;;;17.02;13.20;;;20.00;61.80;;;;;;5011187;28;20541;-55
2023/05/05 07:31:31;;;;;;;16.05;14.25;;;20.00;61.90;;;;;;5011841;28;20220;-55
2023/05/05 07:34:02;;;;;;;23.48;16.95;;;19.90;62.00;;;;;;5011172;28;20201;-58
2023/05/05 07:36:35;;;;;;;22.40;16.88;;;19.90;62.10;;;;;;5012028;28;20201;-58
2023/05/05 07:39:06;;;;;;;20.63;13.32;;;19.90;62.10;;;;;;5011773;28;20712;-56
2023/05/05 07:41:36;;;;;;;14.65;11.15;;;19.80;62.10;;;;;;5010940;28;20200;-57
2023/05/05 07:44:07;;;;;;;14.75;11.07;;;19.80;62.30;;;;;;5011261;28;20233;-56
2023/05/05 07:46:38;;;;;;;15.55;11.30;;;19.80;62.50;;;;;;5011460;28;20196;-58
2023/05/05 07:49:08;;;;;;;15.48;11.70;;;19.80;62.50;;;;;;5011748;28;20204;-57
2023/05/05 07:51:41;;;;;;;16.75;12.05;;;19.70;62.50;;;;;;5012018;28;20288;-57
2023/05/05 07:54:11;;;;;;;14.13;11.77;;;19.70;62.60;;;;;;5016999;28;20196;-57
2023/05/05 07:56:42;;;;;;;14.93;11.73;;;19.70;62.70;;;;;;5017834;28;20193;-57
2023/05/05 07:59:13;;;;;;;19.75;13.30;;;19.70;62.80;;;;;;4992509;28;20198;-57
2023/05/05 08:01:44;;;;;;;15.85;12.75;;;19.60;62.90;;;;;;4992523;28;20201;-58
2023/05/05 08:04:15;;;;;;;15.63;11.70;;;19.60;63.10;;;;;;4998524;28;20232;-55
2023/05/05 08:06:48;;;;;;;15.48;12.52;;;19.60;63.20;;;;;;5011331;28;20200;-57
2023/05/05 08:09:18;;;;;;;18.83;11.23;;;19.60;63.30;;;;;;5011116;28;20224;-57
2023/05/05 08:11:49;;;;;;;12.45;10.13;;;19.60;63.30;;;;;;5010932;28;20223;-57
2023/05/05 08:14:19;;;;;;;16.48;10.98;;;19.50;63.30;;;;;;5011657;28;20193;-58
2023/05/05 08:16:50;;;;;;;17.35;13.82;;;19.50;63.50;;;;;;5011503;28;20197;-57
2023/05/05 08:19:21;;;;;;;16.40;13.50;;;19.50;63.70;;;;;;5010896;28;20771;-57
2023/05/05 08:21:53;;;;;;;16.13;13.23;;;19.40;63.70;;;;;;5011343;28;20890;-58
2023/05/05 08:24:24;;;;;;;18.60;14.60;;;19.40;63.80;;;;;;5024368;28;20235;-58
2023/05/05 08:26:55;;;;;;;20.30;15.23;;;19.40;63.90;;;;;;5030536;28;20200;-56
2023/05/05 08:29:26;;;;;;;20.23;15.05;;;19.40;64.00;;;;;;5030919;28;20230;-58
2023/05/05 08:31:56;;;;;;;21.00;15.73;;;19.40;64.10;;;;;;5018810;28;20587;-57
2023/05/05 08:34:27;;;;;;;19.35;16.05;;;19.30;64.20;;;;;;5011321;28;20236;-57
2023/05/05 08:36:59;;;;;;;21.25;15.85;;;19.30;64.30;;;;;;5011763;28;20201;-57
2023/05/05 08:39:30;;;;;;;23.50;18.17;;;19.30;64.50;;;;;;4997222;28;20197;-58
2023/05/05 08:42:01;;;;;;;20.33;15.73;;;19.30;64.60;;;;;;4991968;28;20208;-57
2023/05/05 08:44:32;;;;;;;16.85;13.02;;;19.30;64.70;;;;;;4991952;28;20229;-58
2023/05/05 08:47:03;;;;;;;15.70;11.55;;;19.30;64.70;;;;;;4992090;28;20193;-58
2023/05/05 08:49:40;;;;;;;14.30;9.68;;;19.30;64.80;;;;;;4991874;28;20229;-57
2023/05/05 08:52:15;;;;;;;10.57;8.32;;;19.30;64.80;;;;;;4991961;28;20201;-58
2023/05/05 08:54:52;;;;;;;11.98;7.18;;;19.20;64.80;;;;;;5024248;28;20238;-57
2023/05/05 08:57:29;;;;;;;10.95;6.85;;;19.20;64.80;;;;;;5031010;28;20246;-57
2023/05/05 09:00:01;;;;;;;11.45;8.45;;;19.20;64.80;;;;;;5030317;28;20826;-57
2023/05/05 09:02:33;;;;;;;12.18;8.20;;;19.20;64.90;;;;;;5030652;28;20196;-58
2023/05/05 09:05:04;;;;;;;12.05;8.23;;;19.20;65.00;;;;;;5030877;28;20233;-57
2023/05/05 09:07:37;;;;;;;13.50;7.97;;;19.20;65.10;;;;;;5031207;28;20200;-56
2023/05/05 09:10:09;;;;;;;9.52;6.50;;;19.10;65.20;;;;;;5006108;28;20217;-57
2023/05/05 09:12:41;;;;;;;11.65;8.23;;;19.10;65.30;;;;;;4997181;28;20288;-59
2023/05/05 09:15:13;;;;;;;13.63;7.00;;;19.10;65.40;;;;;;5012498;28;20201;-59
2023/05/05 09:17:44;;;;;;;9.77;6.75;;;19.10;66.40;;;;;;5015119;28;20197;-58
2023/05/05 09:20:15;;;;;;;9.85;6.57;;;19.20;66.60;;;;;;5014471;28;20217;-58
2023/05/05 09:22:48;;;;;;;9.48;6.72;;;19.20;66.20;;;;;;5015172;28;20197;-58
2023/05/05 09:25:19;;;;;;;10.57;6.80;;;19.20;65.90;;;;;;5034576;28;20242;-58
2023/05/05 09:27:51;;;;;;;9.23;6.53;;;19.20;65.70;;;;;;5034398;28;20208;-59
2023/05/05 09:30:26;;;;;;;10.10;6.78;;;19.30;66.30;;;;;;5034278;28;20216;-59
2023/05/05 09:32:58;;;;;;;9.52;6.95;;;19.30;65.40;;;;;;5034642;28;20238;-59
2023/05/05 09:35:28;;;;;;;12.48;7.43;;;19.30;65.20;;;;;;5034765;28;20206;-59
2023/05/05 09:38:12;;;;;;;10.93;7.40;;;19.30;65.10;;;;;;5026843;28;21876;-59
2023/05/05 09:40:48;;;;;;;11.25;7.22;;;19.40;65.00;;;;;;4997918;28;20252;-59
2023/05/05 09:43:19;;;;;;;10.85;7.05;;;19.40;64.80;;;;;;4998983;28;20224;-59
2023/05/05 09:45:51;;;;;;;10.65;7.10;;;19.40;64.70;;;;;;4997328;28;20221;-59
2023/05/05 09:48:28;;;;;;;7.57;6.65;;;19.40;64.60;;;;;;4998545;28;20219;-59
2023/05/05 09:50:59;;;;;;;9.30;7.20;;;19.40;64.50;;;;;;5010003;28;20220;-59
2023/05/05 09:53:42;;;;;;;11.77;6.72;;;19.50;64.30;;;;;;5000501;28;20205;-59
2023/05/05 09:56:13;;;;;;;8.88;6.30;;;19.50;64.20;;;;;;5013433;28;20635;-59
2023/05/05 09:58:44;;;;;;;8.43;6.97;;;19.50;64.00;;;;;;5013710;28;20200;-59
2023/05/05 10:01:24;;;;;;;11.85;7.13;;;19.50;63.90;;;;;;5012963;28;20220;-59
2023/05/05 10:03:55;;;;;;;9.82;6.90;;;19.50;63.80;;;;;;5013452;28;20834;-59
2023/05/05 10:06:42;;;;;;;9.93;7.00;;;19.50;63.70;;;;;;5013142;28;20204;-59
2023/05/05 10:09:15;;;;;;;9.55;6.97;;;19.50;63.70;;;;;;5013185;28;20327;-59
2023/05/05 10:11:48;;;;;;;9.13;6.55;;;19.50;63.50;;;;;;5013472;28;20228;-59
2023/05/05 10:14:19;;;;;;;9.15;6.68;;;19.50;63.50;;;;;;5013295;28;20243;-59
2023/05/05 10:16:52;;;;;;;8.23;6.10;;;19.60;63.50;;;;;;5013372;28;20715;-58
2023/05/05 10:19:24;;;;;;;8.07;6.47;;;19.60;63.40;;;;;;5012760;28;20193;-59
2023/05/05 10:21:55;;;;;;;9.27;6.55;;;19.60;63.30;;;;;;5012997;28;20644;-59
2023/05/05 10:24:40;;;;;;;6.88;5.95;;;19.50;63.20;;;;;;5014444;28;20241;-59
2023/05/05 10:27:16;;;;;;;10.13;6.35;;;19.60;63.20;;;;;;5011755;28;20212;-60
2023/05/05 10:29:53;;;;;;;8.68;6.93;;;19.60;63.10;;;;;;5012107;28;20211;-60
2023/05/05 10:32:29;;;;;;;8.88;6.20;;;19.60;63.10;;;;;;5023182;28;20223;-60
2023/05/05 10:35:02;;;;;;;8.57;6.38;;;19.60;62.90;;;;;;5008999;28;20220;-58
2023/05/05 10:37:34;;;;;;;8.63;6.03;;;19.60;62.90;;;;;;5012328;28;20193;-58
2023/05/05 10:40:07;;;;;;;7.38;5.97;;;19.60;62.80;;;;;;5012303;28;20213;-59
2023/05/05 10:42:40;;;;;;;8.25;5.97;;;19.60;62.70;;;;;;5011960;28;20223;-59
2023/05/05 10:45:11;;;;;;;7.72;5.97;;;19.60;62.70;;;;;;5012327;28;20664;-59
2023/05/05 10:47:43;;;;;;;7.55;5.40;;;19.60;62.60;;;;;;5012623;28;20207;-59
2023/05/05 10:50:22;;;;;;;9.20;6.22;;;19.60;62.60;;;;;;5011168;28;20263;-59
2023/05/05 10:53:04;;;;;;;8.02;6.05;;;19.60;62.50;;;;;;5012649;28;20228;-59
2023/05/05 10:55:43;;;;;;;7.07;5.85;;;19.60;62.50;;;;;;5011441;28;20676;-59
2023/05/05 10:58:34;;;;;;;8.63;6.30;;;19.60;62.50;;;;;;5011432;28;20652;-59
2023/05/05 11:01:05;;;;;;;7.15;6.03;;;19.60;62.50;;;;;;5011836;28;20300;-59
2023/05/05 11:03:35;;;;;;;10.23;6.53;;;19.60;62.40;;;;;;5011166;28;20785;-60
2023/05/05 11:06:15;;;;;;;7.65;5.53;;;19.60;62.30;;;;;;5007143;28;20217;-59
2023/05/05 11:08:47;;;;;;;8.30;5.80;;;19.60;62.30;;;;;;4996187;28;20196;-59
2023/05/05 11:11:39;;;;;;;8.27;6.03;;;19.60;62.30;;;;;;5012024;28;20216;-60
2023/05/05 11:14:27;;;;;;;7.20;5.57;;;19.60;62.30;;;;;;5012218;28;20196;-60
2023/05/05 11:16:57;;;;;;;6.45;5.45;;;19.60;62.20;;;;;;5012619;28;20197;-60
2023/05/05 11:19:51;;;;;;;6.38;5.30;;;19.60;62.10;;;;;;5011835;28;20193;-60
2023/05/05 11:22:21;;;;;;;9.07;6.15;;;19.60;62.10;;;;;;5011182;28;20207;-60
2023/05/05 11:24:52;;;;;;;5.90;5.30;;;19.60;62.00;;;;;;5016580;28;20727;-60
2023/05/05 11:27:44;;;;;;;6.30;5.50;;;19.60;61.90;;;;;;5011622;28;20204;-60
2023/05/05 11:30:16;;;;;;;7.40;5.80;;;19.60;61.90;;;;;;5011606;28;20213;-59
2023/05/05 11:33:25;;;;;;;6.78;5.90;;;19.60;61.90;;;;;;5011208;28;20200;-59
2023/05/05 11:35:59;;;;;;;6.03;5.40;;;19.60;61.90;;;;;;4991839;28;20288;-60
2023/05/05 11:38:40;;;;;;;6.57;5.63;;;19.60;61.80;;;;;;4991181;28;20202;-60
2023/05/05 11:41:17;;;;;;;6.30;5.35;;;19.60;61.80;;;;;;5011445;28;20220;-59
2023/05/05 11:43:50;;;;;;;6.40;5.25;;;19.60;61.80;;;;;;5010823;28;20200;-59
2023/05/05 11:46:20;;;;;;;6.43;4.90;;;19.60;61.70;;;;;;5011527;28;20228;-60
2023/05/05 11:48:52;;;;;;;6.65;5.28;;;19.60;61.70;;;;;;5011325;28;20278;-59
2023/05/05 11:51:23;;;;;;;7.20;5.68;;;19.60;61.70;;;;;;5001997;28;20268;-60
2023/05/05 11:53:53;;;;;;;6.35;5.30;;;19.60;61.70;;;;;;5007596;28;20204;-59
2023/05/05 11:56:24;;;;;;;6.95;5.30;;;19.60;61.70;;;;;;5010687;28;20204;-59
2023/05/05 11:59:12;;;;;;;6.32;5.35;;;19.60;61.60;;;;;;5010750;28;20287;-58
2023/05/05 12:01:43;;;;;;;6.57;5.15;;;19.60;61.70;;;;;;4991816;28;20205;-60
2023/05/05 12:04:15;;;;;;;6.22;5.28;;;19.60;62.40;;;;;;4996374;28;20189;-60
2023/05/05 12:06:47;;;;;;;6.85;5.60;;;19.60;61.60;;;;;;5010618;28;20201;-60
2023/05/05 12:09:19;;;;;;;5.95;5.13;;;19.60;61.50;;;;;;5010692;28;20193;-60
2023/05/05 12:11:53;;;;;;;5.95;5.32;;;19.60;61.50;;;;;;5010029;28;20657;-60
2023/05/05 12:14:26;;;;;;;5.57;4.60;;;19.60;61.50;;;;;;5011745;28;20204;-60
2023/05/05 12:16:57;;;;;;;5.88;5.05;;;19.60;61.50;;;;;;5010522;28;20229;-60
2023/05/05 12:19:31;;;;;;;6.25;5.20;;;19.60;61.40;;;;;;5010035;28;20204;-59
2023/05/05 12:22:03;;;;;;;4.97;4.45;;;19.60;61.40;;;;;;4990604;28;20194;-60
2023/05/05 12:24:34;;;;;;;6.82;5.13;;;19.60;61.40;;;;;;5014466;28;20203;-60
2023/05/05 12:27:11;;;;;;;5.88;5.28;;;19.60;61.40;;;;;;5010721;28;20227;-59
2023/05/05 12:29:44;;;;;;;5.60;4.82;;;19.60;61.40;;;;;;5010936;28;20696;-60
2023/05/05 12:32:22;;;;;;;5.20;4.70;;;19.60;61.40;;;;;;5011467;28;20208;-59
2023/05/05 12:34:56;;;;;;;5.50;5.00;;;19.60;61.40;;;;;;5010484;28;20193;-60
2023/05/05 12:37:27;;;;;;;5.18;4.68;;;19.50;61.30;;;;;;5011462;28;20204;-60
2023/05/05 12:39:58;;;;;;;5.70;4.88;;;19.60;61.40;;;;;;5011119;28;20279;-60
2023/05/05 12:42:29;;;;;;;5.45;4.30;;;19.60;61.30;;;;;;5011590;28;20203;-60
2023/05/05 12:45:01;;;;;;;6.65;4.85;;;19.60;61.30;;;;;;5011472;28;20231;-59
2023/05/05 12:47:35;;;;;;;5.53;4.68;;;19.50;61.20;;;;;;5011187;28;20263;-59
2023/05/05 12:50:06;;;;;;;4.90;4.28;;;19.50;61.20;;;;;;5011990;28;20221;-60
2023/05/05 12:52:44;;;;;;;5.00;4.50;;;19.50;61.20;;;;;;5015551;28;20657;-60
2023/05/05 12:55:15;;;;;;;5.45;4.78;;;19.50;61.10;;;;;;4995745;28;20737;-59
2023/05/05 12:58:03;;;;;;;5.45;4.80;;;19.50;61.20;;;;;;4995885;28;20198;-59
2023/05/05 13:00:36;;;;;;;6.25;5.07;;;19.50;61.10;;;;;;4996096;28;20224;-60
2023/05/05 13:03:09;;;;;;;5.47;4.22;;;19.50;61.00;;;;;;4995816;28;20220;-59
2023/05/05 13:05:40;;;;;;;5.25;4.25;;;19.50;61.10;;;;;;4995225;28;20221;-59
2023/05/05 13:08:10;;;;;;;5.90;4.57;;;19.50;61.10;;;;;;4995565;28;20603;-59
2023/05/05 13:10:57;;;;;;;7.03;4.55;;;19.50;61.10;;;;;;4995078;28;20691;-60
2023/05/05 13:13:27;;;;;;;5.35;4.43;;;19.50;61.10;;;;;;4997639;28;20212;-59